VIAR/ATQ METAR and TAF weather

Enter ICAO airport designator
Station Type Date Time Source
VIAR METAR 2019/05/19 20:30 UTC NOAA

VIAR 192030Z 06007KT 3000 HZ SCT040 BKN100 24/17 Q1009 NOSIG


Station Type Date Time Source
VIAR Decoded METAR 2019/05/19 20:30 UTC NOAA

Amritsar, India (VIAR) 31-38N 074-52E 234M
May 19, 2019 - 04:30 PM EDT / 2019.05.19 2030 UTC
Wind: from the ENE (060 degrees) at 8 MPH (7 KT):0
Visibility: 1 mile(s):0
Sky conditions: mostly cloudy
Weather: haze
Temperature: 75 F (24 C)
Dew Point: 62 F (17 C)
Relative Humidity: 64%
Pressure (altimeter): 29.80 in. Hg (1009 hPa)
ob: VIAR 192030Z 06007KT 3000 HZ SCT040 BKN100 24/17 Q1009 NOSIG
cycle: 20

Station Type Date Time Source
VIAR TAF 2019/05/19 18:57 UTC NOAA

TAF TAF VIAR 191700Z 1918/2024 25003KT 3000 DU SCT100
BECMG 1922/2003 1500 TSRA SCT035 FEW040CB OVC080
BECMG 2006/2008 27006KT 5000 HZ FEW035 SCT100
BECMG 2009/2014 FEW040CB
BECMG 2015/2017 VRB02KT 3000 HZ BR
BECMG 2020/2021 00000KT 2000 BR

Example: see airport list